Time;durP1;ratioP1;P1;durP2;ratioP2;P2;SDS_P1;SDS_P2;PMS_P1;PMS_P2;Temp;Humidity;BMP_temperature;BMP_pressure;BME280_temperature;BME280_humidity;BME280_pressure;Samples;Min_cycle;Max_cycle;Signal;HPM_P1;HPM_P2
2023/01/16 00:00:53;;;;;;;6.82;3.55;;;3.50;99.90;;;;;;5092491;28;20035;-84
2023/01/16 00:03:19;;;;;;;9.15;3.25;;;3.50;99.90;;;;;;5092401;28;20036;-85
2023/01/16 00:05:45;;;;;;;5.32;3.58;;;3.50;99.90;;;;;;5091696;28;20067;-85
2023/01/16 00:08:11;;;;;;;8.93;3.70;;;3.40;99.90;;;;;;5126774;27;20043;-86
2023/01/16 00:10:37;;;;;;;5.53;3.08;;;3.40;99.90;;;;;;5075604;28;20126;-84
2023/01/16 00:13:03;;;;;;;6.00;2.97;;;3.40;99.90;;;;;;5091941;28;20050;-86
2023/01/16 00:15:29;;;;;;;5.53;2.95;;;3.40;99.90;;;;;;5092340;28;20399;-86
2023/01/16 00:17:55;;;;;;;9.77;3.75;;;3.30;99.90;;;;;;5113208;28;20087;-86
2023/01/16 00:20:21;;;;;;;4.07;2.80;;;3.30;99.90;;;;;;5095697;28;20043;-85
2023/01/16 00:22:46;;;;;;;9.95;3.67;;;3.30;99.90;;;;;;5114574;28;20514;-85
2023/01/16 00:25:12;;;;;;;7.18;3.25;;;3.20;99.90;;;;;;5096225;28;20051;-85
2023/01/16 00:27:38;;;;;;;6.25;2.72;;;3.20;99.90;;;;;;5095382;28;20047;-85
2023/01/16 00:30:05;;;;;;;5.78;3.22;;;3.10;99.90;;;;;;5095691;28;20042;-86
2023/01/16 00:32:31;;;;;;;5.20;2.55;;;3.10;99.90;;;;;;5113131;28;20543;-86
2023/01/16 00:34:56;;;;;;;7.90;3.72;;;3.00;99.90;;;;;;5113103;28;20119;-85
2023/01/16 00:37:22;;;;;;;9.38;3.50;;;3.00;99.90;;;;;;5128316;27;20092;-86
2023/01/16 00:39:48;;;;;;;10.95;4.68;;;3.00;99.90;;;;;;5113072;28;20051;-84
2023/01/16 00:42:14;;;;;;;8.45;3.00;;;2.90;99.90;;;;;;5113595;28;20036;-86
2023/01/16 00:44:40;;;;;;;5.13;2.63;;;3.00;99.90;;;;;;5095971;28;20092;-86
2023/01/16 00:47:06;;;;;;;8.65;3.33;;;3.00;99.90;;;;;;5078616;28;20340;-85
2023/01/16 00:49:32;;;;;;;12.10;3.42;;;3.00;99.90;;;;;;5093952;28;20040;-86
2023/01/16 00:51:58;;;;;;;6.13;3.35;;;3.00;99.90;;;;;;5092632;28;20741;-85
2023/01/16 00:54:24;;;;;;;11.15;3.47;;;3.00;99.90;;;;;;5074959;28;20083;-85
2023/01/16 00:56:50;;;;;;;6.60;2.97;;;3.20;99.90;;;;;;5092297;28;20089;-85
2023/01/16 00:59:16;;;;;;;8.38;3.92;;;3.30;99.90;;;;;;5092291;28;20123;-85
2023/01/16 01:01:41;;;;;;;10.18;3.00;;;3.30;99.90;;;;;;5091440;28;20457;-85
2023/01/16 01:04:07;;;;;;;3.92;2.47;;;3.40;99.90;;;;;;5093696;28;20109;-85
2023/01/16 01:06:33;;;;;;;11.30;2.50;;;3.60;99.90;;;;;;5093547;28;20039;-86
2023/01/16 01:08:59;;;;;;;6.25;2.42;;;3.60;99.90;;;;;;5093068;28;20105;-85
2023/01/16 01:11:24;;;;;;;9.15;2.40;;;3.70;99.90;;;;;;5093417;28;20040;-86
2023/01/16 01:13:51;;;;;;;7.00;2.38;;;3.80;99.90;;;;;;5109015;28;20031;-85
2023/01/16 01:16:16;;;;;;;6.57;3.35;;;3.90;99.90;;;;;;5074278;28;20044;-85
2023/01/16 01:18:42;;;;;;;5.22;2.20;;;3.90;99.90;;;;;;5093046;28;20471;-86
2023/01/16 01:21:09;;;;;;;5.55;2.58;;;4.00;99.90;;;;;;5092094;28;20050;-85
2023/01/16 01:23:35;;;;;;;8.27;3.38;;;4.00;99.90;;;;;;5092683;28;20036;-85
2023/01/16 01:26:12;;;;;;;8.90;3.17;;;4.00;99.90;;;;;;5075174;28;20070;-86
2023/01/16 01:28:38;;;;;;;7.47;2.75;;;4.00;99.90;;;;;;5091318;28;20127;-85
2023/01/16 01:31:06;;;;;;;8.20;2.95;;;4.00;99.90;;;;;;5092189;28;20173;-85
2023/01/16 01:33:32;;;;;;;5.40;2.58;;;3.90;99.90;;;;;;5078818;28;20050;-86
2023/01/16 01:35:57;;;;;;;7.28;2.50;;;3.90;99.90;;;;;;5094163;28;20043;-85
2023/01/16 01:38:23;;;;;;;7.45;2.58;;;3.80;99.90;;;;;;5113116;28;20039;-85
2023/01/16 01:40:49;;;;;;;7.40;2.60;;;3.70;99.90;;;;;;5094946;28;20036;-85
2023/01/16 01:43:16;;;;;;;6.10;2.50;;;3.60;99.90;;;;;;5112381;28;20121;-85
2023/01/16 01:45:55;;;;;;;9.93;2.97;;;3.50;99.90;;;;;;5112950;28;20114;-86
2023/01/16 01:48:29;;;;;;;8.02;2.75;;;3.40;99.90;;;;;;5112832;28;20670;-86
2023/01/16 01:51:12;;;;;;;6.10;2.67;;;3.30;99.90;;;;;;5093920;28;20043;-85
2023/01/16 01:53:40;;;;;;;6.70;2.90;;;3.30;99.90;;;;;;5112981;28;20039;-84
2023/01/16 01:56:24;;;;;;;5.75;2.03;;;3.20;99.90;;;;;;5077620;28;20031;-85
2023/01/16 01:58:56;;;;;;;4.68;2.28;;;3.10;99.90;;;;;;5112181;28;20043;-85
2023/01/16 02:01:22;;;;;;;4.88;2.33;;;3.00;99.90;;;;;;5094791;28;20504;-86
2023/01/16 02:04:01;;;;;;;4.93;2.47;;;2.90;99.90;;;;;;5112623;28;20628;-86
2023/01/16 02:06:58;;;;;;;6.07;2.25;;;2.80;99.90;;;;;;5094410;28;20083;-85
2023/01/16 02:09:25;;;;;;;7.60;2.75;;;2.80;99.90;;;;;;5078299;28;20043;-86
2023/01/16 02:12:17;;;;;;;5.35;2.47;;;2.80;99.90;;;;;;5093317;28;20544;-86
2023/01/16 02:14:46;;;;;;;8.85;2.72;;;2.80;99.90;;;;;;5074523;28;20039;-85
2023/01/16 02:20:07;;;;;;;5.60;3.10;;;2.70;99.90;;;;;;5093292;28;20104;-86
2023/01/16 02:23:04;;;;;;;10.20;2.92;;;2.80;99.90;;;;;;5112175;28;20537;-85
2023/01/16 02:25:58;;;;;;;6.35;2.70;;;2.70;99.90;;;;;;5093256;28;20079;-85
2023/01/16 02:28:45;;;;;;;7.68;3.67;;;2.60;99.90;;;;;;5112128;28;20040;-85
2023/01/16 02:31:49;;;;;;;9.13;2.85;;;2.70;99.90;;;;;;5093634;28;20551;-85
2023/01/16 02:35:10;;;;;;;8.40;2.83;;;2.70;99.90;;;;;;5093648;28;20526;-85
2023/01/16 02:37:55;;;;;;;12.02;4.25;;;2.80;99.90;;;;;;5080430;28;20056;-85
2023/01/16 02:40:23;;;;;;;9.63;3.40;;;2.90;99.90;;;;;;5110737;28;20045;-85
2023/01/16 02:42:55;;;;;;;7.13;3.63;;;3.00;99.90;;;;;;5076979;28;20043;-85
2023/01/16 02:45:53;;;;;;;8.73;3.40;;;3.10;99.90;;;;;;5093469;28;20505;-86
2023/01/16 02:48:45;;;;;;;7.18;2.90;;;3.20;99.90;;;;;;5059420;28;20499;-86
2023/01/16 02:51:26;;;;;;;8.57;3.42;;;3.30;99.90;;;;;;5093415;28;20043;-85
2023/01/16 02:54:11;;;;;;;8.95;3.85;;;3.40;99.90;;;;;;5111120;28;20130;-85
2023/01/16 02:56:45;;;;;;;9.00;3.78;;;3.50;99.90;;;;;;5076471;28;20035;-86
2023/01/16 02:59:14;;;;;;;8.80;3.35;;;3.60;99.90;;;;;;5076462;28;20035;-86
2023/01/16 03:01:40;;;;;;;4.50;2.58;;;3.70;99.90;;;;;;5092766;28;20593;-85
2023/01/16 03:04:34;;;;;;;9.52;4.35;;;3.80;99.90;;;;;;5093316;28;20043;-85
2023/01/16 03:07:10;;;;;;;8.38;4.22;;;3.80;99.90;;;;;;5092534;28;20052;-85
2023/01/16 03:09:58;;;;;;;12.15;4.43;;;3.90;99.90;;;;;;5093158;28;20039;-86
2023/01/16 03:12:45;;;;;;;11.98;4.55;;;4.00;99.90;;;;;;5076235;28;20051;-85
2023/01/16 03:15:29;;;;;;;8.60;4.20;;;4.00;99.90;;;;;;5111083;28;20165;-85
2023/01/16 03:18:04;;;;;;;10.07;4.95;;;4.10;99.90;;;;;;5111189;28;20047;-85
2023/01/16 03:20:44;;;;;;;8.90;4.78;;;4.20;99.90;;;;;;5093156;28;20082;-86
2023/01/16 03:23:21;;;;;;;9.45;4.30;;;4.20;99.90;;;;;;5092541;28;20043;-86
2023/01/16 03:26:17;;;;;;;11.55;6.03;;;4.30;99.90;;;;;;5093235;28;20069;-86
2023/01/16 03:29:02;;;;;;;12.77;5.90;;;4.30;99.90;;;;;;5110732;28;20114;-85
2023/01/16 03:31:50;;;;;;;12.35;6.63;;;4.30;99.90;;;;;;5093060;28;20047;-86
2023/01/16 03:34:53;;;;;;;11.50;5.93;;;4.30;99.90;;;;;;5092922;28;20097;-85
2023/01/16 03:37:28;;;;;;;12.63;6.80;;;4.40;99.90;;;;;;5101197;28;20044;-85
2023/01/16 03:40:02;;;;;;;11.55;6.40;;;4.40;99.90;;;;;;5111209;28;20067;-85
2023/01/16 03:42:38;;;;;;;11.43;6.43;;;4.40;99.90;;;;;;5092561;28;20047;-85
2023/01/16 03:45:17;;;;;;;12.18;7.28;;;4.40;99.90;;;;;;5111156;28;20035;-85
2023/01/16 03:47:51;;;;;;;16.77;8.57;;;4.40;99.90;;;;;;5111104;28;20039;-86
2023/01/16 03:50:20;;;;;;;11.07;6.65;;;4.40;99.90;;;;;;5093058;28;20368;-86
2023/01/16 03:52:51;;;;;;;12.07;7.32;;;4.40;99.90;;;;;;5115179;28;20104;-86
2023/01/16 03:55:20;;;;;;;;;;;4.40;99.90;;;;;;5114494;28;20043;-86
2023/01/16 03:57:54;;;;;;;11.43;7.72;;;4.40;99.90;;;;;;5079649;28;19920;-86
2023/01/16 04:00:22;;;;;;;17.48;8.63;;;4.50;99.90;;;;;;5097028;28;20040;-86
2023/01/16 04:02:59;;;;;;;13.95;7.80;;;4.50;99.90;;;;;;5115095;28;20038;-86
2023/01/16 04:05:34;;;;;;;14.05;9.48;;;4.50;99.90;;;;;;5079926;28;20042;-86
2023/01/16 04:08:37;;;;;;;13.68;8.20;;;4.40;99.90;;;;;;5097006;28;20044;-86
2023/01/16 04:11:05;;;;;;;13.48;8.30;;;4.50;99.90;;;;;;5076460;28;20439;-86
2023/01/16 04:13:35;;;;;;;16.00;9.18;;;4.50;99.90;;;;;;5096628;28;20044;-86
2023/01/16 04:16:02;;;;;;;;;;;4.50;99.90;;;;;;5115458;28;20561;-85
2023/01/16 04:18:32;;;;;;;18.13;10.02;;;4.50;99.90;;;;;;5129682;27;20328;-86
2023/01/16 04:20:58;;;;;;;20.58;11.18;;;4.50;99.90;;;;;;5096509;28;20122;-85
2023/01/16 04:23:24;;;;;;;19.95;11.23;;;4.50;99.90;;;;;;5096693;28;20066;-87
2023/01/16 04:25:50;;;;;;;16.10;9.38;;;4.50;99.90;;;;;;5114032;28;20054;-86
2023/01/16 04:28:16;;;;;;;14.52;9.73;;;4.50;99.90;;;;;;5096291;28;20047;-86
2023/01/16 04:30:42;;;;;;;17.60;10.98;;;4.50;99.90;;;;;;5079601;28;20046;-86
2023/01/16 04:33:08;;;;;;;21.17;11.10;;;4.60;99.90;;;;;;5078738;28;20399;-86
2023/01/16 04:35:34;;;;;;;22.48;11.20;;;4.60;99.90;;;;;;5114510;28;20032;-86
2023/01/16 04:38:00;;;;;;;24.25;12.35;;;4.60;99.90;;;;;;5095622;28;20051;-86
2023/01/16 04:40:26;;;;;;;21.00;12.30;;;4.50;99.90;;;;;;5114326;28;20036;-86
2023/01/16 04:42:54;;;;;;;20.88;11.57;;;4.60;99.90;;;;;;5096317;28;20031;-86
2023/01/16 04:45:21;;;;;;;19.90;12.32;;;4.50;99.90;;;;;;5113830;28;20043;-85
2023/01/16 04:47:49;;;;;;;25.67;13.73;;;4.50;99.90;;;;;;5079467;28;20110;-85
2023/01/16 04:50:15;;;;;;;28.08;12.45;;;4.50;99.90;;;;;;5114347;28;20064;-86
2023/01/16 04:52:42;;;;;;;21.00;13.27;;;4.40;99.90;;;;;;5129545;27;20039;-85
2023/01/16 04:55:09;;;;;;;20.67;12.98;;;4.30;99.90;;;;;;5130113;27;20031;-86
2023/01/16 04:57:35;;;;;;;21.45;13.57;;;4.30;99.90;;;;;;5078933;28;20555;-86
2023/01/16 05:00:03;;;;;;;19.83;13.00;;;4.10;99.90;;;;;;5095031;28;20043;-85
2023/01/16 05:02:28;;;;;;;20.67;12.80;;;4.10;99.90;;;;;;5078014;28;20123;-85
2023/01/16 05:04:54;;;;;;;21.27;13.10;;;4.00;99.90;;;;;;5095590;28;20078;-85
2023/01/16 05:07:20;;;;;;;24.48;13.57;;;4.00;99.90;;;;;;5078347;28;20073;-86
2023/01/16 05:09:45;;;;;;;19.95;13.63;;;3.90;99.90;;;;;;5129695;27;20398;-86
2023/01/16 05:12:11;;;;;;;23.85;13.85;;;3.80;99.90;;;;;;5095806;28;20387;-85
2023/01/16 05:14:37;;;;;;;27.90;13.18;;;3.80;99.90;;;;;;5095008;28;20061;-86
2023/01/16 05:17:03;;;;;;;19.98;12.18;;;3.80;99.90;;;;;;5126078;27;20407;-86
2023/01/16 05:19:28;;;;;;;20.30;12.15;;;3.70;99.90;;;;;;5093240;28;20048;-85
2023/01/16 05:21:54;;;;;;;23.08;12.27;;;3.60;99.90;;;;;;5092611;28;20521;-86
2023/01/16 05:24:20;;;;;;;23.35;11.57;;;3.60;99.90;;;;;;5091843;28;20071;-85
2023/01/16 05:26:45;;;;;;;17.50;10.65;;;3.60;99.90;;;;;;5092996;28;20115;-86
2023/01/16 05:29:11;;;;;;;19.20;11.50;;;3.60;99.90;;;;;;5091176;28;20087;-86
2023/01/16 05:31:37;;;;;;;20.05;12.38;;;3.60;99.90;;;;;;5074862;28;20048;-86
2023/01/16 05:34:03;;;;;;;21.65;12.25;;;3.60;99.90;;;;;;5092441;28;20040;-86
2023/01/16 05:36:29;;;;;;;17.88;10.88;;;3.70;99.90;;;;;;5091707;28;20042;-86
2023/01/16 05:38:54;;;;;;;26.45;13.23;;;3.70;99.90;;;;;;5091623;28;20131;-86
2023/01/16 05:41:20;;;;;;;19.30;11.10;;;3.80;99.90;;;;;;5091094;28;20403;-86
2023/01/16 05:43:46;;;;;;;19.85;10.75;;;3.90;99.90;;;;;;5091524;28;20127;-86
2023/01/16 05:46:12;;;;;;;18.83;12.25;;;3.90;99.90;;;;;;5091544;28;20039;-86
2023/01/16 05:48:39;;;;;;;18.88;9.73;;;3.90;99.90;;;;;;5090722;28;20113;-86
2023/01/16 05:51:05;;;;;;;17.70;10.60;;;3.90;99.90;;;;;;5074729;28;20127;-86
2023/01/16 05:53:31;;;;;;;18.17;10.05;;;3.90;99.90;;;;;;5091559;28;20376;-86
2023/01/16 05:55:58;;;;;;;15.70;9.40;;;3.90;99.90;;;;;;5091867;28;20051;-86
2023/01/16 05:58:24;;;;;;;17.13;10.23;;;3.80;99.90;;;;;;5092791;28;20047;-86
2023/01/16 06:00:49;;;;;;;18.45;9.90;;;3.80;99.90;;;;;;5091423;28;20036;-85
2023/01/16 06:03:15;;;;;;;20.02;10.18;;;3.80;99.90;;;;;;5073634;28;20033;-86
2023/01/16 06:05:42;;;;;;;16.67;9.57;;;3.70;99.90;;;;;;5091130;28;20051;-86
2023/01/16 06:08:08;;;;;;;17.10;9.85;;;3.70;99.90;;;;;;5091040;28;20044;-85
2023/01/16 06:10:33;;;;;;;19.55;9.90;;;3.60;99.90;;;;;;5090666;28;20039;-85
2023/01/16 06:13:03;;;;;;;19.98;9.50;;;3.50;99.90;;;;;;5074402;28;20040;-86
2023/01/16 06:15:29;;;;;;;18.05;9.00;;;3.50;99.90;;;;;;5090898;28;20040;-86
2023/01/16 06:17:55;;;;;;;18.73;10.30;;;3.50;99.90;;;;;;5073120;28;20364;-85
2023/01/16 06:20:21;;;;;;;22.52;10.38;;;3.50;99.90;;;;;;5091098;28;20051;-86
2023/01/16 06:22:47;;;;;;;17.65;9.43;;;3.50;99.90;;;;;;5091971;28;20075;-86
2023/01/16 06:25:13;;;;;;;15.65;8.82;;;3.40;99.90;;;;;;5089946;28;20032;-86
2023/01/16 06:27:39;;;;;;;16.17;8.13;;;3.40;99.90;;;;;;5090918;28;20040;-85
2023/01/16 06:30:06;;;;;;;12.48;7.97;;;3.40;99.90;;;;;;5089939;28;20469;-86
2023/01/16 06:32:31;;;;;;;15.75;7.97;;;3.40;99.90;;;;;;5073634;28;20073;-85
2023/01/16 06:34:57;;;;;;;16.38;8.38;;;3.40;99.90;;;;;;5090473;28;20093;-85
2023/01/16 06:37:23;;;;;;;15.25;8.18;;;3.40;99.90;;;;;;5089978;28;20518;-88
2023/01/16 06:39:49;;;;;;;17.38;8.02;;;3.40;99.90;;;;;;5091628;28;20036;-85
2023/01/16 06:42:14;;;;;;;15.43;7.50;;;3.40;99.90;;;;;;5090327;28;20039;-86
2023/01/16 06:44:40;;;;;;;17.23;8.40;;;3.50;99.90;;;;;;5089964;28;20048;-85
2023/01/16 06:47:06;;;;;;;11.18;7.53;;;3.50;99.90;;;;;;5073451;28;20742;-85
2023/01/16 06:49:32;;;;;;;15.75;8.00;;;3.50;99.90;;;;;;5090184;28;20079;-85
2023/01/16 06:52:00;;;;;;;15.60;7.47;;;3.50;99.90;;;;;;5090681;28;20074;-85
2023/01/16 06:54:26;;;;;;;17.45;7.07;;;3.40;99.90;;;;;;5073700;28;20036;-85
2023/01/16 06:56:52;;;;;;;16.00;7.22;;;3.40;99.90;;;;;;5091564;28;20040;-85
2023/01/16 06:59:18;;;;;;;14.32;6.80;;;3.40;99.90;;;;;;5072376;28;20487;-85
2023/01/16 07:01:43;;;;;;;15.13;6.65;;;3.40;99.90;;;;;;5091342;28;20043;-86
2023/01/16 07:04:09;;;;;;;11.70;6.20;;;3.40;99.90;;;;;;5089946;28;20118;-85
2023/01/16 07:06:36;;;;;;;13.57;6.75;;;3.30;99.90;;;;;;5072512;28;20032;-86
2023/01/16 07:09:02;;;;;;;16.17;6.35;;;3.30;99.90;;;;;;5090270;28;20606;-86
2023/01/16 07:11:28;;;;;;;12.00;6.03;;;3.30;99.90;;;;;;5091398;28;20151;-85
2023/01/16 07:22:34;;;;;;;14.68;6.82;;;3.30;99.90;;;;;;5089296;28;20040;-85
2023/01/16 07:24:56;;;;;;;13.02;5.22;;;3.20;99.90;;;;;;5093075;28;20079;-84
2023/01/16 07:27:22;;;;;;;11.70;5.13;;;3.30;99.90;;;;;;5075378;28;20039;-85
2023/01/16 07:29:48;;;;;;;12.82;5.15;;;3.20;99.90;;;;;;5110198;28;20376;-86
2023/01/16 07:32:14;;;;;;;10.48;6.07;;;3.30;99.90;;;;;;5110143;28;20047;-86
2023/01/16 07:34:39;;;;;;;9.68;5.13;;;3.20;99.90;;;;;;5110629;28;20044;-85
2023/01/16 07:37:07;;;;;;;9.75;4.85;;;3.30;99.90;;;;;;5111231;28;20039;-85
2023/01/16 07:39:33;;;;;;;10.25;4.40;;;3.30;99.90;;;;;;5111071;28;20051;-86
2023/01/16 07:42:06;;;;;;;12.68;5.18;;;3.30;99.90;;;;;;5110506;28;20031;-85
2023/01/16 07:44:33;;;;;;;15.65;5.20;;;3.30;99.90;;;;;;5093030;28;20036;-85
2023/01/16 07:46:58;;;;;;;9.93;5.07;;;3.30;99.90;;;;;;5109061;28;20489;-86
2023/01/16 07:49:24;;;;;;;11.32;4.30;;;3.40;99.90;;;;;;5076287;28;20035;-85
2023/01/16 07:51:50;;;;;;;17.20;5.88;;;3.40;99.90;;;;;;5092789;28;20050;-85
2023/01/16 07:54:16;;;;;;;12.52;4.13;;;3.40;99.90;;;;;;5091923;28;20118;-85
2023/01/16 07:56:42;;;;;;;8.52;3.97;;;3.40;99.90;;;;;;5111257;28;20050;-85
2023/01/16 07:59:07;;;;;;;10.55;4.63;;;3.40;99.90;;;;;;5092691;28;20126;-86
2023/01/16 08:01:33;;;;;;;14.68;4.30;;;3.50;99.90;;;;;;5110322;28;20422;-85
2023/01/16 08:03:59;;;;;;;11.70;4.25;;;3.50;99.90;;;;;;5092582;28;20036;-85
2023/01/16 08:06:25;;;;;;;10.68;3.97;;;3.50;99.90;;;;;;5092758;28;20119;-85
2023/01/16 08:08:51;;;;;;;11.05;3.72;;;3.60;99.90;;;;;;5094265;28;20452;-85
2023/01/16 08:14:02;;;;;;;8.15;3.78;;;3.60;99.90;;;;;;5114955;28;20400;-86
2023/01/16 08:16:27;;;;;;;11.90;3.97;;;3.60;99.90;;;;;;5096974;28;20568;-85
2023/01/16 08:18:53;;;;;;;9.05;4.28;;;3.70;99.90;;;;;;5097519;28;20043;-84
2023/01/16 08:21:19;;;;;;;10.52;4.30;;;3.70;99.90;;;;;;5115723;28;20087;-83
2023/01/16 08:23:45;;;;;;;9.88;4.10;;;3.80;99.90;;;;;;5096902;28;20040;-86
2023/01/16 08:26:12;;;;;;;11.15;4.35;;;3.80;99.90;;;;;;5096814;28;20047;-86
2023/01/16 08:28:39;;;;;;;10.55;4.30;;;3.80;99.90;;;;;;5094876;28;20115;-85
2023/01/16 08:31:08;;;;;;;10.13;4.45;;;3.90;99.90;;;;;;5112920;28;20043;-85
2023/01/16 08:33:38;;;;;;;12.05;4.57;;;3.90;99.90;;;;;;5078191;28;20043;-87
2023/01/16 08:36:06;;;;;;;8.52;4.90;;;3.90;99.90;;;;;;5094813;28;20108;-88
2023/01/16 08:38:32;;;;;;;10.80;5.65;;;3.90;99.90;;;;;;5097404;28;20067;-88
2023/01/16 08:40:58;;;;;;;10.68;4.65;;;3.90;99.90;;;;;;5099294;28;20040;-86
2023/01/16 08:51:59;;;;;;;12.60;5.30;;;4.00;99.90;;;;;;5110968;28;20047;-85
2023/01/16 08:54:25;;;;;;;9.73;5.75;;;4.00;99.90;;;;;;5111544;28;20100;-85
2023/01/16 08:56:51;;;;;;;10.80;5.75;;;4.00;99.90;;;;;;5110924;28;20035;-85
2023/01/16 08:59:17;;;;;;;11.52;5.70;;;4.00;99.90;;;;;;5111241;28;20043;-86
2023/01/16 09:01:43;;;;;;;14.43;5.68;;;4.00;99.90;;;;;;5111272;28;20115;-85
2023/01/16 09:04:08;;;;;;;11.05;5.85;;;4.10;99.90;;;;;;5110502;28;20031;-85
2023/01/16 09:06:37;;;;;;;9.55;5.18;;;4.10;99.90;;;;;;5092839;28;20035;-85
2023/01/16 09:09:05;;;;;;;13.77;5.68;;;4.10;99.90;;;;;;5076313;28;20042;-84
2023/01/16 09:14:17;;;;;;;9.32;5.57;;;4.10;99.90;;;;;;5092863;28;20047;-85
2023/01/16 09:16:43;;;;;;;13.48;6.93;;;4.10;99.90;;;;;;5092417;28;20097;-85
2023/01/16 09:19:10;;;;;;;13.27;6.35;;;4.10;99.90;;;;;;5110241;28;20075;-85
2023/01/16 09:21:35;;;;;;;12.18;5.53;;;4.10;99.90;;;;;;5092664;28;20035;-85
2023/01/16 09:24:02;;;;;;;11.00;5.10;;;4.10;99.90;;;;;;5092965;28;20036;-85
2023/01/16 09:26:28;;;;;;;13.18;5.03;;;4.10;99.90;;;;;;5094736;28;20371;-86
2023/01/16 09:28:54;;;;;;;9.43;4.80;;;4.20;99.90;;;;;;5094965;28;20047;-85
2023/01/16 09:31:20;;;;;;;9.15;4.90;;;4.20;99.90;;;;;;5095286;28;20031;-86
2023/01/16 09:33:47;;;;;;;8.95;4.75;;;4.10;99.90;;;;;;5112671;28;20043;-86
2023/01/16 09:36:13;;;;;;;9.57;4.57;;;4.10;99.90;;;;;;5113123;28;20043;-85
2023/01/16 09:38:39;;;;;;;10.57;5.38;;;4.20;99.90;;;;;;5077995;28;20044;-85
2023/01/16 09:41:06;;;;;;;6.82;4.50;;;4.20;99.90;;;;;;5094089;28;20040;-86
2023/01/16 09:43:38;;;;;;;10.20;4.28;;;4.20;99.90;;;;;;5077888;28;20040;-86
2023/01/16 09:46:20;;;;;;;9.65;4.15;;;4.20;99.90;;;;;;5094011;28;20035;-86
2023/01/16 09:48:49;;;;;;;7.95;4.60;;;4.20;99.90;;;;;;5077687;28;20035;-86
2023/01/16 09:51:21;;;;;;;8.85;4.45;;;4.20;99.90;;;;;;5094618;28;20035;-85
2023/01/16 09:59:47;;;;;;;9.43;4.53;;;4.20;99.90;;;;;;5094354;28;20075;-85
2023/01/16 10:02:12;;;;;;;7.47;4.57;;;4.20;99.90;;;;;;5076887;28;20044;-85
2023/01/16 10:04:38;;;;;;;5.32;4.00;;;4.20;99.90;;;;;;5112506;28;20043;-86
2023/01/16 10:07:32;;;;;;;7.03;3.40;;;4.20;99.90;;;;;;5093564;28;20078;-86
2023/01/16 10:10:09;;;;;;;5.72;3.38;;;4.20;99.90;;;;;;5094289;28;20048;-85
2023/01/16 10:12:39;;;;;;;6.65;3.50;;;4.20;99.90;;;;;;5112681;28;20071;-85
2023/01/16 10:15:14;;;;;;;5.65;2.92;;;4.20;99.90;;;;;;5093802;28;20074;-85
2023/01/16 10:17:51;;;;;;;8.13;3.10;;;4.20;99.90;;;;;;5111807;28;20486;-84
2023/01/16 10:20:23;;;;;;;3.92;1.77;;;4.20;99.90;;;;;;5096837;28;20044;-85
2023/01/16 10:23:22;;;;;;;4.88;2.53;;;4.20;99.90;;;;;;5093145;28;20118;-85
2023/01/16 10:26:17;;;;;;;4.22;2.17;;;4.00;99.90;;;;;;5112181;28;20043;-84
2023/01/16 10:28:56;;;;;;;4.28;2.40;;;3.90;99.90;;;;;;5093096;28;20043;-85
2023/01/16 10:31:27;;;;;;;2.92;1.60;;;3.90;99.90;;;;;;5092781;28;20044;-85
2023/01/16 10:34:03;;;;;;;2.58;1.50;;;3.80;99.90;;;;;;5075530;28;20126;-85
2023/01/16 10:36:34;;;;;;;3.25;1.70;;;3.70;99.90;;;;;;5073447;28;20518;-85
2023/01/16 10:39:02;;;;;;;2.72;1.52;;;3.70;99.90;;;;;;5074146;28;20072;-85
2023/01/16 10:49:58;;;;;;;3.63;1.60;;;3.60;99.90;;;;;;5111296;28;20052;-86
2023/01/16 10:52:24;;;;;;;3.00;1.95;;;3.60;99.90;;;;;;5111881;28;20042;-85
2023/01/16 10:54:52;;;;;;;3.28;1.70;;;3.60;99.90;;;;;;5093575;28;20100;-86
2023/01/16 10:57:20;;;;;;;3.50;1.58;;;3.60;99.90;;;;;;5126819;27;20039;-85
2023/01/16 10:59:48;;;;;;;4.80;2.10;;;3.60;99.90;;;;;;5111060;28;20042;-85
2023/01/16 11:02:22;;;;;;;4.03;2.10;;;3.60;99.90;;;;;;5093416;28;20039;-85
2023/01/16 11:04:48;;;;;;;3.85;1.90;;;3.60;99.90;;;;;;5091872;28;20108;-85
2023/01/16 11:07:16;;;;;;;3.70;2.30;;;3.60;99.90;;;;;;5093435;28;20040;-85
2023/01/16 11:09:45;;;;;;;3.45;2.05;;;3.60;99.90;;;;;;5111462;28;20036;-85
2023/01/16 11:18:30;;;;;;;4.30;2.60;;;3.60;99.90;;;;;;5090860;28;20135;-86
2023/01/16 11:21:37;;;;;;;6.57;3.33;;;3.60;99.90;;;;;;5076993;28;20051;-85
2023/01/16 11:24:16;;;;;;;6.05;2.55;;;3.60;99.90;;;;;;5043791;28;20045;-85
2023/01/16 11:26:48;;;;;;;4.55;2.30;;;3.60;99.90;;;;;;5010119;28;20037;-85
2023/01/16 11:29:19;;;;;;;4.80;2.65;;;3.70;99.90;;;;;;5010921;28;20129;-85
2023/01/16 11:31:54;;;;;;;3.78;2.35;;;3.70;99.90;;;;;;5010982;28;20138;-85
2023/01/16 11:34:21;;;;;;;3.78;2.53;;;3.60;99.90;;;;;;5044863;28;20037;-85
2023/01/16 11:36:47;;;;;;;3.83;2.42;;;3.70;99.90;;;;;;5011818;28;20541;-88
2023/01/16 11:39:22;;;;;;;5.15;2.80;;;3.70;99.90;;;;;;5011613;28;20507;-87
2023/01/16 11:41:51;;;;;;;5.10;2.65;;;3.70;99.90;;;;;;5013688;28;20089;-88
2023/01/16 11:47:22;;;;;;;4.35;2.83;;;3.70;99.90;;;;;;5027623;28;20041;-85
2023/01/16 11:49:50;;;;;;;4.20;2.90;;;3.70;99.90;;;;;;5008799;28;20436;-85
2023/01/16 11:52:26;;;;;;;5.03;3.15;;;3.70;99.90;;;;;;5010256;28;20465;-86
2023/01/16 11:55:00;;;;;;;6.50;4.03;;;3.70;99.90;;;;;;5053483;28;20087;-84
2023/01/16 11:57:40;;;;;;;4.95;3.40;;;3.80;99.90;;;;;;5109878;28;20039;-85
2023/01/16 12:00:23;;;;;;;;;;;3.80;99.90;;;;;;5092431;28;20048;-85
2023/01/16 12:03:21;;;;;;;5.90;3.28;;;3.80;99.90;;;;;;5093096;28;19969;-86
2023/01/16 12:05:53;;;;;;;5.32;2.67;;;3.80;99.90;;;;;;5109783;28;20044;-86
2023/01/16 12:08:31;;;;;;;10.77;4.32;;;3.90;99.90;;;;;;5092778;28;20050;-86
2023/01/16 12:11:31;;;;;;;5.40;2.90;;;3.90;99.90;;;;;;5092743;28;20530;-85
2023/01/16 12:14:29;;;;;;;5.10;2.85;;;3.90;99.90;;;;;;5114346;28;20070;-85
2023/01/16 12:17:20;;;;;;;6.88;4.20;;;4.00;99.90;;;;;;5105681;28;20055;-85
2023/01/16 12:20:11;;;;;;;6.03;3.90;;;4.00;99.90;;;;;;5076296;28;20048;-86
2023/01/16 12:23:31;;;;;;;7.20;3.58;;;4.10;99.90;;;;;;5091010;28;20039;-86
2023/01/16 12:26:14;;;;;;;6.57;3.22;;;4.10;99.90;;;;;;5012374;28;20038;-86
2023/01/16 12:28:52;;;;;;;5.00;3.95;;;4.10;99.90;;;;;;4995099;28;20049;-85
2023/01/16 12:31:38;;;;;;;4.00;3.28;;;4.10;99.90;;;;;;5012511;28;20045;-85
2023/01/16 12:34:06;;;;;;;4.90;3.63;;;4.20;99.90;;;;;;5013824;28;20096;-87
2023/01/16 12:36:46;;;;;;;5.43;3.58;;;4.10;99.90;;;;;;5029973;28;20481;-85
2023/01/16 12:39:33;;;;;;;6.30;3.70;;;4.10;99.90;;;;;;5031323;28;20033;-85
2023/01/16 12:45:36;;;;;;;5.25;4.45;;;4.20;99.90;;;;;;5014988;28;20382;-85
2023/01/16 12:48:15;;;;;;;5.50;3.28;;;4.20;99.90;;;;;;5029847;28;20107;-85
2023/01/16 12:51:03;;;;;;;7.75;3.05;;;4.20;99.90;;;;;;5014713;28;20437;-85
2023/01/16 12:53:56;;;;;;;4.93;3.60;;;4.30;99.90;;;;;;5033375;28;20122;-85
2023/01/16 12:56:49;;;;;;;4.68;3.80;;;4.30;99.90;;;;;;5031956;28;20044;-86
2023/01/16 12:59:39;;;;;;;5.93;3.65;;;4.30;99.90;;;;;;5039108;22;20055;-75
2023/01/16 13:02:26;;;;;;;4.90;3.88;;;4.40;99.90;;;;;;5033970;28;20500;-76
2023/01/16 13:04:55;;;;;;;6.63;3.78;;;4.40;99.90;;;;;;5052773;28;20033;-76
2023/01/16 13:07:23;;;;;;;6.85;3.53;;;4.40;99.90;;;;;;5045548;28;20046;-77
2023/01/16 13:13:24;;;;;;;7.65;4.10;;;4.50;99.90;;;;;;5009484;28;20513;-75
2023/01/16 13:16:02;;;;;;;;;;;4.50;99.90;;;;;;5018365;28;20167;-75
2023/01/16 13:18:57;;;;;;;6.65;3.78;;;4.50;99.90;;;;;;5052519;28;19921;-76
2023/01/16 13:21:33;;;;;;;7.30;3.67;;;4.50;99.90;;;;;;5031549;28;20511;-78
2023/01/16 13:24:16;;;;;;;6.25;3.67;;;4.60;99.90;;;;;;5032857;28;20499;-73
2023/01/16 13:26:48;;;;;;;7.38;4.70;;;4.50;99.90;;;;;;5034667;28;20041;-76
2023/01/16 13:29:22;;;;;;;4.93;3.83;;;4.60;99.90;;;;;;5049515;28;20045;-74
2023/01/16 13:31:57;;;;;;;6.53;3.15;;;4.60;99.90;;;;;;5031982;28;20245;-75
2023/01/16 13:34:29;;;;;;;6.18;4.03;;;4.60;99.90;;;;;;5016559;28;20542;-73
2023/01/16 13:37:31;;;;;;;5.28;4.20;;;4.60;99.90;;;;;;5031881;28;20128;-72
2023/01/16 13:40:12;;;;;;;5.07;3.88;;;4.60;99.90;;;;;;5033595;28;20048;-72
2023/01/16 13:42:46;;;;;;;5.70;4.45;;;4.60;99.90;;;;;;5033784;28;20444;-72
2023/01/16 13:45:48;;;;;;;5.47;4.20;;;4.60;99.90;;;;;;5051199;28;20041;-72
2023/01/16 13:48:21;;;;;;;6.57;4.72;;;4.60;99.90;;;;;;5026118;28;20038;-75
2023/01/16 13:50:58;;;;;;;6.03;4.07;;;4.60;99.90;;;;;;5042890;28;20493;-74
2023/01/16 13:53:24;;;;;;;4.75;3.47;;;4.60;99.90;;;;;;5034052;28;20052;-75
2023/01/16 13:56:05;;;;;;;5.03;4.18;;;4.60;99.90;;;;;;5051996;28;20588;-75
2023/01/16 13:58:31;;;;;;;7.25;4.18;;;4.60;99.90;;;;;;5050373;28;20037;-74
2023/01/16 14:01:04;;;;;;;5.13;3.78;;;4.60;99.90;;;;;;5033855;28;20060;-72
2023/01/16 14:03:32;;;;;;;7.25;4.43;;;4.60;99.90;;;;;;5051715;28;20362;-74
2023/01/16 14:06:10;;;;;;;6.80;4.57;;;4.60;99.90;;;;;;5049545;28;20049;-74
2023/01/16 14:09:14;;;;;;;7.82;4.88;;;4.60;99.90;;;;;;5029301;28;20095;-77
2023/01/16 14:12:01;;;;;;;7.07;4.85;;;4.60;99.90;;;;;;5023621;28;20119;-78
2023/01/16 14:17:52;;;;;;;7.50;5.95;;;4.70;99.90;;;;;;5044623;28;20043;-77